Time;durP1;ratioP1;P1;durP2;ratioP2;P2;SDS_P1;SDS_P2;PMS_P1;PMS_P2;Temp;Humidity;BMP_temperature;BMP_pressure;BME280_temperature;BME280_humidity;BME280_pressure;Samples;Min_cycle;Max_cycle;Signal;HPM_P1;HPM_P2
2021/03/26 00:01:10;;;;;;;43.65;27.02;;;8.80;99.90;;;;;;5016702;28;20204;-76
2021/03/26 00:03:40;;;;;;;38.83;26.73;;;8.80;99.90;;;;;;5034785;28;20282;-76
2021/03/26 00:06:11;;;;;;;44.38;28.58;;;8.80;99.90;;;;;;5034620;28;20180;-77
2021/03/26 00:08:40;;;;;;;39.33;25.85;;;8.80;99.90;;;;;;5034358;28;20219;-76
2021/03/26 00:11:07;;;;;;;43.25;26.00;;;8.80;99.90;;;;;;5016255;28;20172;-77
2021/03/26 00:13:33;;;;;;;45.00;27.02;;;8.80;99.90;;;;;;5034244;28;20528;-76
2021/03/26 00:15:59;;;;;;;49.53;28.23;;;8.80;99.90;;;;;;5034043;28;20217;-76
2021/03/26 00:18:25;;;;;;;48.55;27.35;;;8.80;99.90;;;;;;5034288;28;20191;-76
2021/03/26 00:20:53;;;;;;;44.13;28.33;;;8.80;99.90;;;;;;5016348;28;20188;-76
2021/03/26 00:23:19;;;;;;;47.80;29.05;;;8.70;99.90;;;;;;5017081;28;20210;-77
2021/03/26 00:25:45;;;;;;;41.92;27.52;;;8.70;99.90;;;;;;5016234;28;20191;-76
2021/03/26 00:28:11;;;;;;;42.63;27.55;;;8.70;99.90;;;;;;5033707;28;20611;-75
2021/03/26 00:30:37;;;;;;;40.92;26.23;;;8.70;99.90;;;;;;5033871;28;20181;-76
2021/03/26 00:33:05;;;;;;;42.33;26.27;;;8.70;99.90;;;;;;5034269;28;20521;-76
2021/03/26 00:35:32;;;;;;;43.63;28.02;;;8.70;99.90;;;;;;5016480;28;20517;-76
2021/03/26 00:37:58;;;;;;;40.35;26.65;;;8.70;99.90;;;;;;5016367;28;20202;-76
2021/03/26 00:40:24;;;;;;;43.13;27.48;;;8.80;99.90;;;;;;5016321;28;20176;-76
2021/03/26 00:42:51;;;;;;;41.88;27.42;;;8.80;99.90;;;;;;5033409;28;20179;-76
2021/03/26 00:45:20;;;;;;;41.45;26.98;;;8.70;99.90;;;;;;5033825;28;21554;-76
2021/03/26 00:47:46;;;;;;;44.13;26.58;;;8.70;99.90;;;;;;5033682;28;20540;-77
2021/03/26 00:50:25;;;;;;;40.92;26.13;;;8.70;99.90;;;;;;5033889;28;20179;-76
2021/03/26 00:52:51;;;;;;;47.55;28.05;;;8.60;99.90;;;;;;5015708;28;20176;-76
2021/03/26 00:55:19;;;;;;;49.85;27.90;;;8.60;99.90;;;;;;5033110;28;20184;-75
2021/03/26 00:57:45;;;;;;;45.40;27.90;;;8.60;99.90;;;;;;5033784;28;20184;-76
2021/03/26 01:00:17;;;;;;;45.45;27.02;;;8.60;99.90;;;;;;5016013;28;20178;-76
2021/03/26 01:02:42;;;;;;;42.88;26.77;;;8.60;99.90;;;;;;5015683;28;20632;-76
2021/03/26 01:05:11;;;;;;;45.30;26.85;;;8.50;99.90;;;;;;5033542;28;20172;-77
2021/03/26 01:07:37;;;;;;;47.05;27.10;;;8.50;99.90;;;;;;5033426;28;20624;-76
2021/03/26 01:10:07;;;;;;;49.83;26.33;;;8.50;99.90;;;;;;5033289;28;20208;-76
2021/03/26 01:12:33;;;;;;;44.50;27.10;;;8.50;99.90;;;;;;5033542;28;20175;-75
2021/03/26 01:14:58;;;;;;;46.55;27.50;;;8.50;99.90;;;;;;5015261;28;20272;-76
2021/03/26 01:17:24;;;;;;;45.63;26.92;;;8.50;99.90;;;;;;5033732;28;20207;-76
2021/03/26 01:19:50;;;;;;;45.00;26.30;;;8.50;99.90;;;;;;5015775;28;20179;-76
2021/03/26 01:22:16;;;;;;;44.95;25.67;;;8.50;99.90;;;;;;5033198;28;20187;-76
2021/03/26 01:24:41;;;;;;;44.55;26.20;;;8.50;99.90;;;;;;5032440;28;20176;-78
2021/03/26 01:27:07;;;;;;;45.10;26.40;;;8.40;99.90;;;;;;5015741;28;20200;-76
2021/03/26 01:29:33;;;;;;;43.97;25.83;;;8.40;99.90;;;;;;5015641;28;20632;-77
2021/03/26 01:31:59;;;;;;;44.38;26.42;;;8.40;99.90;;;;;;5015531;28;20164;-76
2021/03/26 01:34:26;;;;;;;44.53;26.27;;;8.40;99.90;;;;;;5015391;28;20540;-76
2021/03/26 01:36:51;;;;;;;46.00;25.55;;;8.40;99.90;;;;;;5015271;28;20183;-76
2021/03/26 01:39:17;;;;;;;47.53;26.77;;;8.40;99.90;;;;;;5033628;28;20179;-76
2021/03/26 01:41:46;;;;;;;42.35;25.95;;;8.40;99.90;;;;;;5033309;28;20256;-76
2021/03/26 01:44:12;;;;;;;41.20;25.70;;;8.30;99.90;;;;;;5015446;28;20176;-76
2021/03/26 01:46:39;;;;;;;46.65;26.17;;;8.40;99.90;;;;;;5032634;28;20683;-76
2021/03/26 01:49:08;;;;;;;44.17;26.52;;;8.40;99.90;;;;;;5032956;28;20589;-76
2021/03/26 01:51:43;;;;;;;46.13;26.35;;;8.40;99.90;;;;;;5032904;28;20164;-76
2021/03/26 01:54:13;;;;;;;38.45;25.50;;;8.50;99.90;;;;;;5032883;28;20251;-76
2021/03/26 01:56:39;;;;;;;46.95;25.95;;;8.40;99.90;;;;;;5032933;28;20225;-76
2021/03/26 01:59:06;;;;;;;42.22;24.98;;;8.50;99.90;;;;;;5033026;28;20203;-76
2021/03/26 02:01:40;;;;;;;40.05;25.15;;;8.40;99.90;;;;;;5032918;28;20195;-76
2021/03/26 02:04:07;;;;;;;44.65;25.98;;;8.30;99.90;;;;;;5032654;28;20175;-76
2021/03/26 02:06:38;;;;;;;41.88;24.52;;;8.40;99.90;;;;;;4998621;28;20633;-76
2021/03/26 02:09:09;;;;;;;41.92;26.30;;;8.40;99.90;;;;;;5035243;28;20279;-76
2021/03/26 02:11:58;;;;;;;39.97;25.92;;;8.50;99.90;;;;;;5019140;28;20164;-77
2021/03/26 02:14:47;;;;;;;44.13;25.42;;;8.60;99.90;;;;;;5018533;28;20183;-77
2021/03/26 02:17:20;;;;;;;44.60;25.88;;;8.60;99.90;;;;;;5036502;28;20172;-77
2021/03/26 02:20:01;;;;;;;46.72;26.35;;;8.50;99.90;;;;;;5036693;28;20215;-76
2021/03/26 02:22:30;;;;;;;40.95;24.65;;;8.60;99.90;;;;;;5036214;28;20172;-76
2021/03/26 02:24:56;;;;;;;43.42;23.70;;;8.60;99.90;;;;;;5036726;28;20183;-76
2021/03/26 02:27:29;;;;;;;38.47;23.85;;;8.60;99.90;;;;;;5036166;28;20684;-76
2021/03/26 02:29:56;;;;;;;41.67;25.08;;;8.50;99.90;;;;;;5034902;28;20187;-77
2021/03/26 02:32:28;;;;;;;38.75;23.17;;;8.50;99.90;;;;;;5036355;28;20196;-76
2021/03/26 02:35:21;;;;;;;39.78;23.88;;;8.50;99.90;;;;;;5036072;28;20183;-76
2021/03/26 02:38:15;;;;;;;39.85;23.45;;;8.40;99.90;;;;;;5036159;28;20180;-76
2021/03/26 02:40:47;;;;;;;37.67;23.83;;;8.40;99.90;;;;;;5035650;28;20214;-76
2021/03/26 02:43:20;;;;;;;36.55;22.52;;;8.30;99.90;;;;;;5036267;28;20168;-77
2021/03/26 02:46:12;;;;;;;41.30;23.70;;;8.30;99.90;;;;;;5035810;28;20625;-76
2021/03/26 02:48:53;;;;;;;34.42;23.05;;;8.30;99.90;;;;;;5035586;28;20216;-77
2021/03/26 02:51:25;;;;;;;39.80;23.30;;;8.30;99.90;;;;;;5035834;28;20176;-76
2021/03/26 02:54:17;;;;;;;38.22;22.10;;;8.30;99.90;;;;;;5036252;28;20180;-77
2021/03/26 02:56:53;;;;;;;40.15;22.13;;;8.30;99.90;;;;;;5036132;28;20238;-76
2021/03/26 02:59:33;;;;;;;36.10;20.40;;;8.10;99.90;;;;;;5035913;28;20277;-77
2021/03/26 03:02:00;;;;;;;35.42;22.92;;;8.00;99.90;;;;;;5017898;28;20176;-76
2021/03/26 03:05:01;;;;;;;34.83;22.50;;;8.00;99.90;;;;;;5035712;28;20171;-77
2021/03/26 03:07:32;;;;;;;46.13;22.92;;;8.00;99.90;;;;;;5018304;28;20345;-77
2021/03/26 03:10:19;;;;;;;41.55;22.88;;;8.20;99.90;;;;;;5036116;28;20176;-76
2021/03/26 03:12:46;;;;;;;40.28;23.63;;;8.30;99.90;;;;;;5017375;28;20314;-76
2021/03/26 03:16:10;;;;;;;41.05;22.65;;;8.30;99.90;;;;;;5001286;28;20195;-76
2021/03/26 03:18:41;;;;;;;38.80;22.50;;;8.30;99.90;;;;;;4983492;28;20191;-76
2021/03/26 03:21:15;;;;;;;37.83;22.13;;;8.20;99.90;;;;;;5035201;28;20203;-77
2021/03/26 03:23:46;;;;;;;36.50;22.15;;;8.20;99.90;;;;;;5014640;28;20215;-76
2021/03/26 03:26:28;;;;;;;37.22;22.13;;;8.20;99.90;;;;;;5015780;28;20187;-76
2021/03/26 03:29:08;;;;;;;41.95;22.73;;;8.20;99.90;;;;;;5015722;28;20196;-76
2021/03/26 03:31:44;;;;;;;39.35;22.02;;;8.10;99.90;;;;;;5032506;28;20168;-76
2021/03/26 03:34:29;;;;;;;46.08;22.38;;;8.10;99.90;;;;;;5035276;28;20183;-77
2021/03/26 03:37:11;;;;;;;46.20;22.67;;;8.10;99.90;;;;;;5035326;28;20714;-76
2021/03/26 03:40:05;;;;;;;43.35;22.80;;;8.20;99.90;;;;;;5017391;28;20617;-77
2021/03/26 03:42:54;;;;;;;33.97;21.25;;;8.20;99.90;;;;;;5014557;28;20196;-77
2021/03/26 03:45:43;;;;;;;38.20;21.67;;;8.30;99.90;;;;;;5033486;28;20222;-76
2021/03/26 03:48:14;;;;;;;38.63;21.63;;;8.30;99.90;;;;;;5017115;28;20595;-77
2021/03/26 03:50:57;;;;;;;38.90;22.15;;;8.20;99.90;;;;;;5034946;28;20622;-77
2021/03/26 03:53:28;;;;;;;40.90;22.70;;;8.20;99.90;;;;;;5034334;28;20510;-77
2021/03/26 03:56:13;;;;;;;35.58;21.65;;;8.10;99.90;;;;;;5033249;28;20198;-76
2021/03/26 03:58:42;;;;;;;45.70;23.88;;;8.10;99.90;;;;;;5034591;28;20176;-77
2021/03/26 04:01:18;;;;;;;44.83;23.58;;;8.10;99.90;;;;;;5016669;28;20196;-76
2021/03/26 04:04:07;;;;;;;48.90;24.00;;;8.10;99.90;;;;;;5035148;28;20172;-76
2021/03/26 04:06:54;;;;;;;46.22;23.67;;;8.00;99.90;;;;;;5014971;28;20200;-76
2021/03/26 04:09:23;;;;;;;39.40;22.73;;;8.00;99.90;;;;;;5014824;28;20188;-76
2021/03/26 04:11:55;;;;;;;41.35;22.98;;;8.00;99.90;;;;;;5014870;28;20177;-77
2021/03/26 04:14:48;;;;;;;41.90;23.30;;;7.90;99.90;;;;;;4997207;28;20659;-76
2021/03/26 04:17:31;;;;;;;46.33;23.15;;;7.90;99.90;;;;;;5014660;28;20183;-76
2021/03/26 04:20:03;;;;;;;45.75;23.73;;;7.90;99.90;;;;;;4997274;28;20177;-76
2021/03/26 04:22:35;;;;;;;48.20;23.13;;;7.80;99.90;;;;;;4997136;28;20180;-76
2021/03/26 04:25:16;;;;;;;39.20;22.10;;;7.70;99.90;;;;;;5014584;28;20161;-76
2021/03/26 04:27:45;;;;;;;41.08;22.25;;;7.50;99.90;;;;;;5033396;28;20208;-77
2021/03/26 04:30:22;;;;;;;44.42;23.45;;;7.50;99.90;;;;;;5033963;28;20319;-76
2021/03/26 04:32:49;;;;;;;43.17;21.92;;;7.50;99.90;;;;;;5016515;28;20179;-76
2021/03/26 04:35:16;;;;;;;39.25;21.83;;;7.50;99.90;;;;;;5016605;28;20263;-76
2021/03/26 04:38:00;;;;;;;42.28;24.00;;;7.50;99.90;;;;;;5033698;28;20672;-77
2021/03/26 04:40:28;;;;;;;37.92;21.95;;;7.50;99.90;;;;;;5034325;28;20183;-76
2021/03/26 04:43:25;;;;;;;43.50;22.63;;;7.50;99.90;;;;;;5033767;28;20179;-77
2021/03/26 04:46:01;;;;;;;42.60;22.23;;;7.40;99.90;;;;;;5015737;28;20731;-76
2021/03/26 04:48:33;;;;;;;53.10;22.85;;;7.30;99.90;;;;;;5033419;28;20199;-76
2021/03/26 04:50:59;;;;;;;45.13;22.35;;;7.30;99.90;;;;;;5016371;28;20176;-76
2021/03/26 04:53:32;;;;;;;36.53;22.45;;;7.30;99.90;;;;;;5033746;28;20510;-76
2021/03/26 04:56:03;;;;;;;40.58;23.00;;;7.40;99.90;;;;;;5033601;28;20191;-76
2021/03/26 04:58:33;;;;;;;44.97;23.73;;;7.30;99.90;;;;;;5033402;28;20652;-77
2021/03/26 05:01:03;;;;;;;45.15;23.02;;;7.40;99.90;;;;;;5015957;28;20569;-76
2021/03/26 05:03:35;;;;;;;38.47;21.90;;;7.40;99.90;;;;;;5033530;28;20644;-76
2021/03/26 05:06:09;;;;;;;44.63;24.40;;;7.50;99.90;;;;;;5033492;28;20655;-76
2021/03/26 05:08:38;;;;;;;48.87;24.43;;;7.60;99.90;;;;;;5033046;28;20210;-76
2021/03/26 05:11:06;;;;;;;40.33;22.37;;;7.60;99.90;;;;;;5033212;28;20175;-76
2021/03/26 05:13:43;;;;;;;47.38;22.65;;;7.60;99.90;;;;;;5033355;28;20168;-76
2021/03/26 05:16:19;;;;;;;44.75;23.30;;;7.70;99.90;;;;;;5033249;28;20175;-76
2021/03/26 05:18:56;;;;;;;41.37;23.23;;;7.70;99.90;;;;;;5033538;28;20168;-77
2021/03/26 05:21:40;;;;;;;43.40;23.83;;;7.70;99.90;;;;;;5033508;28;20168;-77
2021/03/26 05:24:34;;;;;;;48.40;23.35;;;7.70;99.90;;;;;;5015418;28;20251;-77
2021/03/26 05:27:00;;;;;;;46.95;25.67;;;7.70;99.90;;;;;;5032459;28;20191;-76
2021/03/26 05:29:27;;;;;;;48.95;24.65;;;7.70;99.90;;;;;;4999616;28;20255;-76
2021/03/26 05:32:15;;;;;;;49.63;24.52;;;7.70;99.90;;;;;;5015514;28;20254;-76
2021/03/26 05:34:41;;;;;;;47.85;23.60;;;7.70;99.90;;;;;;5033146;28;20206;-76
2021/03/26 05:37:28;;;;;;;41.08;23.60;;;7.70;99.90;;;;;;5015520;28;20184;-76
2021/03/26 05:40:08;;;;;;;47.70;24.40;;;7.70;99.90;;;;;;5033206;28;20184;-77
2021/03/26 05:42:44;;;;;;;51.05;27.05;;;7.80;99.90;;;;;;5035309;28;20168;-76
2021/03/26 05:45:37;;;;;;;51.85;25.17;;;7.80;99.90;;;;;;5019527;28;20171;-76
2021/03/26 05:48:32;;;;;;;47.30;24.45;;;8.00;99.90;;;;;;5036643;28;20779;-76
2021/03/26 05:51:13;;;;;;;51.20;25.95;;;8.00;99.90;;;;;;4999496;28;20173;-76
2021/03/26 05:54:17;;;;;;;48.47;25.17;;;8.10;99.90;;;;;;5017335;28;20259;-76
2021/03/26 05:57:26;;;;;;;42.13;24.05;;;8.10;99.90;;;;;;5017364;28;20190;-76
2021/03/26 06:00:29;;;;;;;52.30;25.20;;;8.20;99.90;;;;;;4933677;29;20183;-76
2021/03/26 06:03:13;;;;;;;46.85;26.02;;;8.30;99.90;;;;;;5035761;28;20635;-76
2021/03/26 06:06:10;;;;;;;49.10;23.80;;;8.40;99.90;;;;;;5018695;28;20183;-76
2021/03/26 06:09:00;;;;;;;43.88;24.98;;;8.50;99.90;;;;;;5018751;28;20208;-76
2021/03/26 06:11:50;;;;;;;42.78;24.83;;;8.50;99.90;;;;;;5036516;28;20176;-76
2021/03/26 06:14:34;;;;;;;45.63;24.98;;;8.70;99.90;;;;;;5036954;28;20229;-76
2021/03/26 06:17:38;;;;;;;44.33;23.50;;;9.00;99.90;;;;;;5018748;28;20210;-77
2021/03/26 06:20:18;;;;;;;35.92;20.98;;;8.90;99.90;;;;;;5036169;28;20636;-76
2021/03/26 06:23:22;;;;;;;35.97;20.05;;;9.10;99.90;;;;;;5017119;28;20169;-76
2021/03/26 06:25:50;;;;;;;39.13;20.13;;;9.40;99.90;;;;;;5016982;28;20176;-76
2021/03/26 06:28:49;;;;;;;32.97;20.23;;;9.60;99.90;;;;;;5032049;28;20672;-76
2021/03/26 06:31:35;;;;;;;44.92;19.90;;;9.70;99.90;;;;;;5036294;28;20535;-76
2021/03/26 06:34:49;;;;;;;29.58;19.63;;;9.80;99.90;;;;;;5036518;28;20172;-76
2021/03/26 06:37:30;;;;;;;32.10;19.05;;;9.90;99.90;;;;;;4948670;28;20187;-76
2021/03/26 06:40:10;;;;;;;30.02;19.58;;;10.10;99.90;;;;;;5016567;28;20651;-76
2021/03/26 06:42:44;;;;;;;31.65;18.20;;;10.20;99.90;;;;;;5026200;28;20194;-77
2021/03/26 06:45:37;;;;;;;29.08;17.52;;;10.30;99.90;;;;;;5036088;28;20524;-76
2021/03/26 06:48:17;;;;;;;28.27;17.15;;;10.40;99.90;;;;;;5036179;28;20200;-76
2021/03/26 06:51:03;;;;;;;42.38;19.27;;;10.40;99.90;;;;;;5036176;28;20164;-76
2021/03/26 06:53:43;;;;;;;31.48;17.85;;;10.30;99.90;;;;;;5017146;28;20180;-76
2021/03/26 06:56:50;;;;;;;31.45;17.85;;;10.30;99.90;;;;;;5036020;28;20171;-76
2021/03/26 06:59:34;;;;;;;29.08;18.23;;;10.50;99.90;;;;;;5035035;28;20242;-76
2021/03/26 07:02:40;;;;;;;24.95;16.77;;;10.50;99.90;;;;;;5018046;28;20250;-76
2021/03/26 07:05:27;;;;;;;28.73;18.83;;;10.50;99.90;;;;;;5013993;28;20631;-76
2021/03/26 07:08:14;;;;;;;28.70;17.73;;;10.50;99.90;;;;;;5016833;28;20704;-76
2021/03/26 07:11:19;;;;;;;27.23;16.83;;;10.50;99.90;;;;;;5014772;28;20181;-76
2021/03/26 07:14:22;;;;;;;30.27;17.10;;;10.40;99.90;;;;;;5018823;28;20176;-76
2021/03/26 07:16:58;;;;;;;28.95;18.38;;;10.40;99.90;;;;;;5035620;28;20643;-76
2021/03/26 07:20:12;;;;;;;30.73;16.88;;;10.50;99.90;;;;;;5035481;28;20167;-76
2021/03/26 07:23:15;;;;;;;27.30;16.77;;;10.50;99.90;;;;;;4997964;28;20629;-76
2021/03/26 07:26:12;;;;;;;27.92;15.93;;;10.50;99.90;;;;;;5028720;28;20182;-76
2021/03/26 07:28:56;;;;;;;23.27;15.95;;;10.60;99.90;;;;;;5031870;28;20216;-76
2021/03/26 07:31:44;;;;;;;29.33;15.63;;;10.70;99.90;;;;;;5035446;28;20160;-76
2021/03/26 07:34:29;;;;;;;25.67;14.55;;;10.70;99.90;;;;;;5035489;28;20625;-76
2021/03/26 07:37:37;;;;;;;25.13;14.35;;;10.70;99.90;;;;;;5034573;28;20182;-76
2021/03/26 07:40:35;;;;;;;26.08;14.07;;;10.60;99.90;;;;;;5021681;28;20188;-76
2021/03/26 07:43:37;;;;;;;20.98;15.10;;;10.70;99.90;;;;;;5017251;28;20271;-76
2021/03/26 07:46:31;;;;;;;22.08;14.15;;;10.70;99.90;;;;;;5035031;28;20182;-77
2021/03/26 07:49:12;;;;;;;23.50;13.95;;;10.90;99.90;;;;;;5035278;28;20200;-76
2021/03/26 07:51:42;;;;;;;25.35;13.73;;;11.00;99.90;;;;;;5034983;28;20339;-76
2021/03/26 07:54:34;;;;;;;20.38;13.68;;;11.00;99.90;;;;;;5017339;28;20168;-76
2021/03/26 07:57:25;;;;;;;19.45;12.90;;;11.00;99.90;;;;;;5023488;28;20555;-76
2021/03/26 08:00:02;;;;;;;24.27;13.85;;;11.10;99.90;;;;;;5034818;28;20683;-76
2021/03/26 08:03:05;;;;;;;20.70;12.20;;;11.20;99.90;;;;;;5017053;28;20167;-76
2021/03/26 08:05:42;;;;;;;21.52;12.88;;;11.40;99.90;;;;;;5034876;28;20217;-76
2021/03/26 08:08:29;;;;;;;20.50;12.38;;;11.50;99.90;;;;;;5034182;28;20239;-76
2021/03/26 08:11:16;;;;;;;14.95;11.80;;;11.50;99.90;;;;;;5034378;28;20640;-76
2021/03/26 08:14:13;;;;;;;16.70;11.55;;;11.60;99.90;;;;;;5016731;28;20168;-76
2021/03/26 08:16:54;;;;;;;21.70;10.75;;;11.70;99.90;;;;;;5016506;28;20576;-77
2021/03/26 08:19:37;;;;;;;19.02;11.68;;;11.80;99.90;;;;;;5014887;28;20175;-76
2021/03/26 08:22:24;;;;;;;17.35;11.10;;;11.70;99.90;;;;;;5014153;28;20176;-76
2021/03/26 08:25:01;;;;;;;14.70;10.13;;;11.70;99.90;;;;;;5034592;28;20520;-77
2021/03/26 08:27:43;;;;;;;16.98;10.18;;;11.70;99.90;;;;;;5035458;28;20199;-76
2021/03/26 08:30:20;;;;;;;22.48;10.55;;;11.80;99.90;;;;;;5024596;28;20189;-76
2021/03/26 08:33:02;;;;;;;22.52;11.27;;;11.80;99.90;;;;;;5016532;28;20628;-76
2021/03/26 08:35:58;;;;;;;21.33;10.98;;;11.90;99.90;;;;;;5033938;28;20223;-76
2021/03/26 08:38:51;;;;;;;23.45;10.98;;;12.00;99.90;;;;;;5015786;28;20186;-75
2021/03/26 08:41:25;;;;;;;21.40;11.52;;;12.10;99.90;;;;;;5034103;28;20196;-76
2021/03/26 08:43:54;;;;;;;19.35;10.18;;;12.20;99.90;;;;;;5016090;28;20237;-76
2021/03/26 08:46:28;;;;;;;16.30;10.20;;;12.20;99.90;;;;;;5016357;28;20499;-76
2021/03/26 08:49:18;;;;;;;27.65;10.95;;;12.50;99.90;;;;;;5033673;28;20230;-76
2021/03/26 08:52:09;;;;;;;13.63;9.65;;;12.60;99.90;;;;;;5033709;28;20172;-76
2021/03/26 08:55:10;;;;;;;19.98;8.98;;;12.60;99.90;;;;;;5033612;28;20169;-76
2021/03/26 08:57:47;;;;;;;12.38;9.60;;;12.80;99.90;;;;;;5033115;28;20601;-76
2021/03/26 09:00:32;;;;;;;11.90;8.85;;;12.90;99.90;;;;;;5033593;28;20172;-76
2021/03/26 09:03:07;;;;;;;15.57;9.02;;;13.00;99.90;;;;;;5033755;28;20175;-76
2021/03/26 09:06:12;;;;;;;21.55;9.43;;;13.10;99.90;;;;;;5033583;28;20246;-76
2021/03/26 09:09:14;;;;;;;13.40;8.10;;;13.10;99.90;;;;;;5030993;28;20204;-76
2021/03/26 09:12:04;;;;;;;19.85;8.30;;;13.00;99.90;;;;;;5032442;28;20180;-77
2021/03/26 09:14:51;;;;;;;12.82;7.40;;;12.70;99.90;;;;;;5015901;28;20283;-76
2021/03/26 09:17:17;;;;;;;16.98;8.27;;;12.60;99.90;;;;;;5015050;28;20204;-76
2021/03/26 09:19:54;;;;;;;15.73;9.25;;;12.80;99.90;;;;;;5033270;28;20262;-76
2021/03/26 09:22:34;;;;;;;18.60;7.70;;;12.90;99.90;;;;;;5015589;28;20196;-77
2021/03/26 09:25:00;;;;;;;16.98;8.38;;;12.90;99.90;;;;;;5033270;28;20172;-76
2021/03/26 09:27:43;;;;;;;15.02;8.32;;;13.00;99.90;;;;;;5015473;28;20706;-76
2021/03/26 09:30:32;;;;;;;20.75;7.93;;;13.10;99.90;;;;;;5033611;28;20195;-76
2021/03/26 09:33:14;;;;;;;20.52;8.23;;;13.10;99.90;;;;;;5019422;28;20192;-76
2021/03/26 09:35:53;;;;;;;22.83;8.15;;;13.00;99.90;;;;;;5015438;28;20639;-78
2021/03/26 09:38:32;;;;;;;8.77;7.03;;;13.00;99.90;;;;;;5032947;28;20532;-76
2021/03/26 09:41:02;;;;;;;15.25;7.32;;;13.00;99.90;;;;;;5033349;28;20263;-76
2021/03/26 09:43:30;;;;;;;13.07;8.15;;;13.00;99.90;;;;;;5032793;28;20168;-76
2021/03/26 09:46:10;;;;;;;15.60;8.63;;;13.20;99.90;;;;;;5032989;28;20168;-76
2021/03/26 09:49:02;;;;;;;15.90;8.30;;;13.50;99.90;;;;;;5015082;28;20211;-76
2021/03/26 09:51:36;;;;;;;14.90;8.07;;;14.30;99.90;;;;;;5011293;28;20176;-74
2021/03/26 09:54:17;;;;;;;9.25;7.15;;;15.10;99.90;;;;;;5030898;28;20245;-76
2021/03/26 09:56:51;;;;;;;17.30;7.57;;;16.50;99.90;;;;;;5027656;28;20198;-77
2021/03/26 09:59:54;;;;;;;11.95;7.18;;;18.40;99.90;;;;;;5031858;28;20180;-76
2021/03/26 10:02:37;;;;;;;9.60;6.57;;;20.50;99.90;;;;;;5030678;28;20270;-77
2021/03/26 10:05:20;;;;;;;10.90;6.30;;;22.00;99.90;;;;;;5014118;28;20207;-77
2021/03/26 10:07:54;;;;;;;12.80;6.07;;;22.90;99.90;;;;;;5010860;28;20212;-76
2021/03/26 10:13:01;;;;;;;12.43;5.72;;;24.00;99.90;;;;;;5014446;28;20176;-77
2021/03/26 10:15:31;;;;;;;8.43;4.63;;;24.00;99.90;;;;;;5023206;28;20181;-77
2021/03/26 10:18:03;;;;;;;10.10;4.38;;;24.10;99.90;;;;;;5032881;28;20692;-77
2021/03/26 10:20:32;;;;;;;8.02;4.25;;;23.90;99.90;;;;;;5009501;28;20172;-76
2021/03/26 10:23:03;;;;;;;8.85;3.72;;;24.20;99.90;;;;;;5032739;28;20175;-77
2021/03/26 10:25:47;;;;;;;6.93;3.95;;;24.40;98.40;;;;;;5031134;28;20577;-76
2021/03/26 10:28:47;;;;;;;4.15;3.72;;;23.90;98.50;;;;;;5014412;28;20665;-77
2021/03/26 10:31:35;;;;;;;8.68;3.92;;;23.90;97.90;;;;;;5035886;28;20580;-77
2021/03/26 10:34:06;;;;;;;5.55;4.55;;;24.50;96.50;;;;;;5017035;28;20188;-77
2021/03/26 10:36:55;;;;;;;6.55;4.75;;;24.00;97.50;;;;;;5034660;28;20176;-76
2021/03/26 10:39:30;;;;;;;8.40;4.55;;;24.10;97.40;;;;;;5035550;28;20536;-76
2021/03/26 10:42:06;;;;;;;10.52;4.20;;;23.00;97.50;;;;;;5035007;28;20171;-76
2021/03/26 10:44:47;;;;;;;5.82;3.70;;;22.00;98.90;;;;;;5034924;28;20211;-76
2021/03/26 10:47:18;;;;;;;9.57;3.97;;;21.40;99.90;;;;;;5035729;28;20179;-76
2021/03/26 10:49:50;;;;;;;10.27;4.18;;;20.60;99.90;;;;;;5016864;28;20212;-76
2021/03/26 10:52:39;;;;;;;9.57;4.85;;;19.70;99.90;;;;;;5035330;28;20210;-76
2021/03/26 10:55:14;;;;;;;5.95;4.20;;;19.10;99.90;;;;;;5034801;28;20251;-78
2021/03/26 10:57:59;;;;;;;8.07;3.75;;;18.80;99.90;;;;;;5015761;28;20187;-76
2021/03/26 11:00:29;;;;;;;9.18;4.47;;;17.80;99.90;;;;;;5015940;28;20197;-75
2021/03/26 11:03:21;;;;;;;4.15;3.75;;;17.50;99.90;;;;;;5015457;28;20172;-77
2021/03/26 11:06:00;;;;;;;5.40;3.53;;;17.30;99.90;;;;;;5020496;28;20639;-75
2021/03/26 11:08:36;;;;;;;10.05;2.75;;;17.70;99.90;;;;;;5035579;28;20286;-76
2021/03/26 11:11:05;;;;;;;5.35;3.10;;;17.40;99.90;;;;;;5035065;28;20187;-75
2021/03/26 11:13:56;;;;;;;9.70;2.85;;;16.70;99.90;;;;;;5017811;28;20303;-79
2021/03/26 11:16:31;;;;;;;3.88;2.03;;;16.50;99.90;;;;;;5017498;28;20179;-76
2021/03/26 11:19:07;;;;;;;3.45;2.40;;;16.20;99.90;;;;;;5016895;28;20179;-77
2021/03/26 11:21:44;;;;;;;5.18;1.83;;;15.90;99.90;;;;;;5016737;28;20163;-78
2021/03/26 11:24:12;;;;;;;2.08;1.02;;;15.60;99.90;;;;;;5034706;28;20188;-78
2021/03/26 11:26:48;;;;;;;5.18;1.30;;;15.70;99.90;;;;;;5034327;28;20217;-76
2021/03/26 11:29:33;;;;;;;6.63;1.30;;;15.80;99.90;;;;;;4998010;28;20324;-77
2021/03/26 11:32:02;;;;;;;6.82;1.40;;;15.60;99.90;;;;;;5015179;28;20247;-76
2021/03/26 11:34:37;;;;;;;3.45;1.13;;;16.20;99.90;;;;;;5031485;28;20179;-77
2021/03/26 11:37:32;;;;;;;5.53;0.95;;;16.40;99.90;;;;;;5017409;28;20572;-77
2021/03/26 11:40:16;;;;;;;1.48;0.75;;;16.10;99.90;;;;;;5034204;28;20176;-77
2021/03/26 11:42:45;;;;;;;2.30;1.08;;;16.20;99.90;;;;;;5034677;28;20306;-76
2021/03/26 11:45:14;;;;;;;1.35;0.80;;;16.60;99.90;;;;;;5016048;28;20188;-77
2021/03/26 11:47:42;;;;;;;2.67;0.90;;;16.00;99.90;;;;;;5033499;28;20291;-77
2021/03/26 11:51:03;;;;;;;4.78;1.13;;;16.20;99.90;;;;;;5032134;28;20169;-76
2021/03/26 11:53:54;;;;;;;2.88;1.33;;;16.00;99.90;;;;;;4954437;29;20713;-78
2021/03/26 11:56:27;;;;;;;5.68;1.10;;;16.40;99.90;;;;;;5031349;28;20218;-76
2021/03/26 11:59:00;;;;;;;9.27;1.48;;;16.00;99.90;;;;;;5033040;28;20183;-76
2021/03/26 12:01:32;;;;;;;8.52;1.33;;;16.00;99.90;;;;;;5015702;28;20687;-77
2021/03/26 12:04:08;;;;;;;6.05;1.40;;;17.70;99.90;;;;;;5015062;28;20168;-78
2021/03/26 12:06:40;;;;;;;5.18;2.10;;;18.80;99.90;;;;;;5016696;28;20226;-76
2021/03/26 12:09:15;;;;;;;3.55;1.60;;;17.30;99.90;;;;;;5033451;28;20562;-77
2021/03/26 12:12:00;;;;;;;3.60;1.70;;;17.20;99.90;;;;;;5032887;28;20225;-77
2021/03/26 12:14:41;;;;;;;7.45;1.73;;;18.90;99.90;;;;;;5033501;28;20180;-77
2021/03/26 12:17:42;;;;;;;4.75;1.25;;;18.90;99.90;;;;;;5032631;28;20222;-76
2021/03/26 12:20:16;;;;;;;14.00;1.77;;;17.90;99.90;;;;;;5013940;28;20190;-77
2021/03/26 12:23:00;;;;;;;4.13;1.80;;;18.40;99.90;;;;;;5012973;28;20640;-76
2021/03/26 12:25:43;;;;;;;5.28;2.72;;;20.00;99.90;;;;;;5021279;28;20176;-76
2021/03/26 12:28:23;;;;;;;4.53;2.78;;;20.50;99.10;;;;;;5013846;28;20218;-76
2021/03/26 12:31:09;;;;;;;7.70;2.90;;;20.10;99.90;;;;;;5032530;28;20181;-77
2021/03/26 12:33:57;;;;;;;6.45;3.03;;;21.40;99.50;;;;;;5030119;28;20174;-76
2021/03/26 12:36:31;;;;;;;4.55;2.65;;;20.00;99.70;;;;;;5032871;28;20178;-76
2021/03/26 12:39:17;;;;;;;5.30;2.13;;;18.90;99.90;;;;;;5033710;28;20631;-76
2021/03/26 12:41:50;;;;;;;6.95;1.98;;;17.80;99.90;;;;;;5031189;28;20204;-76
2021/03/26 12:44:16;;;;;;;4.55;2.20;;;17.30;99.90;;;;;;5034101;28;20160;-77
2021/03/26 12:47:20;;;;;;;2.50;2.05;;;16.90;99.90;;;;;;5030208;28;20233;-76
2021/03/26 12:49:55;;;;;;;5.55;1.88;;;16.50;99.90;;;;;;5007531;28;20533;-80
2021/03/26 12:52:33;;;;;;;3.40;2.00;;;16.60;99.90;;;;;;5031871;28;20178;-77
2021/03/26 12:55:12;;;;;;;6.18;2.15;;;16.50;99.90;;;;;;5014632;28;20180;-76
2021/03/26 12:57:45;;;;;;;4.47;1.60;;;16.30;99.90;;;;;;5013890;28;20195;-76
2021/03/26 13:00:53;;;;;;;18.75;2.03;;;16.20;99.90;;;;;;5032575;28;20190;-77
2021/03/26 13:03:44;;;;;;;3.00;1.45;;;16.10;99.90;;;;;;5012412;28;20180;-76
2021/03/26 13:06:27;;;;;;;2.42;1.48;;;16.20;99.90;;;;;;5033683;28;20702;-76
2021/03/26 13:09:07;;;;;;;1.73;1.42;;;16.40;99.90;;;;;;5032507;28;20215;-76
2021/03/26 13:11:43;;;;;;;3.08;1.75;;;16.30;99.90;;;;;;5000528;28;20175;-76
2021/03/26 13:14:18;;;;;;;4.75;1.48;;;16.30;99.90;;;;;;5014478;28;20712;-77
2021/03/26 13:16:52;;;;;;;4.50;1.50;;;16.10;99.90;;;;;;5015797;28;20163;-77
2021/03/26 13:19:21;;;;;;;5.63;1.27;;;16.10;99.90;;;;;;5032252;28;20236;-76
2021/03/26 13:21:48;;;;;;;3.25;1.50;;;16.20;99.90;;;;;;5032558;28;20214;-77
2021/03/26 13:24:54;;;;;;;5.45;1.58;;;16.40;99.90;;;;;;5015448;28;20645;-77
2021/03/26 13:27:33;;;;;;;5.43;2.13;;;16.50;99.90;;;;;;5026409;28;20183;-76
2021/03/26 13:30:15;;;;;;;7.18;2.00;;;16.60;99.90;;;;;;5032792;28;20516;-76
2021/03/26 13:32:41;;;;;;;3.47;2.13;;;16.80;99.90;;;;;;5031620;28;20263;-76
2021/03/26 13:35:14;;;;;;;4.18;1.90;;;16.50;99.90;;;;;;5032299;28;20250;-76
2021/03/26 13:37:43;;;;;;;8.65;2.25;;;16.80;99.90;;;;;;5033107;28;20576;-76
2021/03/26 13:40:21;;;;;;;4.18;1.90;;;16.60;99.90;;;;;;5014562;28;20184;-76
2021/03/26 13:43:12;;;;;;;11.40;2.58;;;16.50;99.90;;;;;;5033056;28;20595;-76